Time;durP1;ratioP1;P1;durP2;ratioP2;P2;SDS_P1;SDS_P2;PMS_P1;PMS_P2;Temp;Humidity;BMP_temperature;BMP_pressure;BME280_temperature;BME280_humidity;BME280_pressure;Samples;Min_cycle;Max_cycle;Signal;HPM_P1;HPM_P2
2021/12/07 00:01:15;;;;;;;3.78;3.13;;;2.30;1.00;;;;;;5070723;28;20469;-60
2021/12/07 00:03:42;;;;;;;3.92;3.33;;;2.40;1.00;;;;;;5071007;28;20423;-60
2021/12/07 00:06:09;;;;;;;4.35;3.35;;;2.30;1.00;;;;;;5071096;28;20476;-60
2021/12/07 00:08:37;;;;;;;4.03;3.60;;;2.40;1.00;;;;;;5071021;28;20411;-60
2021/12/07 00:11:04;;;;;;;3.72;3.30;;;2.40;1.00;;;;;;5071317;28;20408;-60
2021/12/07 00:13:36;;;;;;;3.80;3.20;;;2.40;1.00;;;;;;5071555;28;20968;-60
2021/12/07 00:16:04;;;;;;;3.75;3.20;;;2.40;1.00;;;;;;5071284;28;20422;-60
2021/12/07 00:18:30;;;;;;;3.40;2.97;;;2.30;1.00;;;;;;5071498;28;20498;-60
2021/12/07 00:20:57;;;;;;;3.17;2.78;;;2.30;1.00;;;;;;5071239;28;20411;-60
2021/12/07 00:23:24;;;;;;;3.30;3.00;;;2.40;1.00;;;;;;5070544;28;20973;-62
2021/12/07 00:25:50;;;;;;;3.10;2.77;;;2.30;1.00;;;;;;5070787;28;20498;-59
2021/12/07 00:28:19;;;;;;;3.10;2.80;;;2.30;1.00;;;;;;5070627;28;20442;-59
2021/12/07 00:30:49;;;;;;;3.60;3.30;;;2.40;1.00;;;;;;5070896;28;20415;-60
2021/12/07 00:33:30;;;;;;;3.53;3.22;;;2.30;1.00;;;;;;5070447;28;20437;-60
2021/12/07 00:35:57;;;;;;;3.85;3.10;;;2.30;1.00;;;;;;5070770;28;20416;-58
2021/12/07 00:38:26;;;;;;;3.85;3.30;;;2.30;1.00;;;;;;5070639;28;20416;-60
2021/12/07 00:40:55;;;;;;;4.20;3.40;;;2.30;1.00;;;;;;5073493;28;20407;-58
2021/12/07 00:43:22;;;;;;;3.88;3.47;;;2.30;1.00;;;;;;5074289;28;20834;-58
2021/12/07 00:45:51;;;;;;;3.90;3.50;;;2.20;1.00;;;;;;5074321;28;20432;-56
2021/12/07 00:48:18;;;;;;;3.75;3.17;;;2.20;1.00;;;;;;5074811;28;20415;-58
2021/12/07 00:50:48;;;;;;;3.80;3.20;;;2.20;1.00;;;;;;5074669;28;20826;-58
2021/12/07 00:53:15;;;;;;;3.50;3.20;;;2.20;2.00;;;;;;5074084;28;20919;-60
2021/12/07 00:55:46;;;;;;;3.65;3.15;;;2.20;1.00;;;;;;5074622;28;20476;-60
2021/12/07 00:58:18;;;;;;;4.63;3.45;;;2.30;15.20;;;;;;5074630;28;20466;-58
2021/12/07 01:00:46;;;;;;;5.30;4.25;;;2.20;11.40;;;;;;5074522;28;20506;-59
2021/12/07 01:03:14;;;;;;;3.80;3.40;;;2.20;16.50;;;;;;5073896;28;20967;-59
2021/12/07 01:05:48;;;;;;;4.63;4.07;;;2.10;27.80;;;;;;5074219;28;20453;-58
2021/12/07 01:08:27;;;;;;;5.27;4.33;;;2.20;41.60;;;;;;5074290;28;20830;-59
2021/12/07 01:24:42;;;;;;;7.63;5.78;;;2.00;99.90;;;;;;5073646;28;20394;-60
2021/12/07 01:27:11;;;;;;;7.13;5.63;;;2.10;99.90;;;;;;5074101;28;20415;-59
2021/12/07 01:29:40;;;;;;;6.93;5.72;;;2.20;99.90;;;;;;5073864;28;20415;-60
2021/12/07 01:32:17;;;;;;;7.32;5.97;;;2.00;94.80;;;;;;5073479;28;20411;-59
2021/12/07 01:35:28;;;;;;;7.43;6.38;;;2.00;99.50;;;;;;5073596;28;20439;-60
2021/12/07 01:38:07;;;;;;;7.10;6.17;;;2.20;99.90;;;;;;5073772;28;20421;-57
2021/12/07 01:40:52;;;;;;;9.68;6.88;;;2.30;89.10;;;;;;5073549;28;20415;-59
2021/12/07 01:52:21;;;;;;;9.43;8.05;;;2.30;23.50;;;;;;5071603;28;20457;-60
2021/12/07 01:59:31;;;;;;;10.40;7.77;;;2.30;1.00;;;;;;5047198;28;20748;-60
2021/12/07 02:00:44;;;;;;;9.27;7.47;;;2.30;1.00;;;;;;5072975;28;20426;-60
2021/12/07 02:03:11;;;;;;;8.75;7.70;;;2.20;1.00;;;;;;5072848;28;20408;-60
2021/12/07 02:05:37;;;;;;;8.25;7.15;;;2.30;1.00;;;;;;5072981;28;20908;-60
2021/12/07 02:08:06;;;;;;;8.82;7.40;;;2.30;1.00;;;;;;5073438;28;20415;-57
2021/12/07 02:10:33;;;;;;;9.35;7.88;;;2.20;1.00;;;;;;5073000;28;20422;-60
2021/12/07 02:13:04;;;;;;;9.27;7.57;;;2.10;1.00;;;;;;5072817;28;20415;-60
2021/12/07 02:15:32;;;;;;;9.73;8.25;;;2.00;1.00;;;;;;5073129;28;20415;-60
2021/12/07 02:17:59;;;;;;;9.85;8.23;;;2.00;1.00;;;;;;5072965;28;20416;-59
2021/12/07 02:20:30;;;;;;;9.10;7.68;;;2.00;1.00;;;;;;5072905;28;20412;-60
2021/12/07 02:22:58;;;;;;;11.20;9.00;;;1.90;1.00;;;;;;5072368;28;20415;-60
2021/12/07 02:25:25;;;;;;;11.30;9.18;;;1.90;1.00;;;;;;5072745;28;20423;-60
2021/12/07 02:27:53;;;;;;;11.30;9.03;;;1.90;1.00;;;;;;5072991;28;20415;-59
2021/12/07 02:30:23;;;;;;;11.45;9.30;;;1.90;1.00;;;;;;5072644;28;20900;-60
2021/12/07 02:32:51;;;;;;;11.82;9.10;;;1.80;1.00;;;;;;5072265;28;20415;-60
2021/12/07 02:35:23;;;;;;;12.60;9.57;;;1.80;1.00;;;;;;5072582;28;20411;-59
2021/12/07 02:37:50;;;;;;;12.80;10.10;;;1.80;1.00;;;;;;5072677;28;20423;-60
2021/12/07 02:40:18;;;;;;;12.38;9.43;;;1.80;1.00;;;;;;5072739;28;20415;-60
2021/12/07 02:42:45;;;;;;;13.77;9.90;;;1.70;1.00;;;;;;5072330;28;20830;-60
2021/12/07 02:45:12;;;;;;;14.55;11.15;;;1.80;1.00;;;;;;5072330;28;20431;-60
2021/12/07 02:47:40;;;;;;;12.63;9.93;;;1.80;1.00;;;;;;5072543;28;20439;-60
2021/12/07 02:50:08;;;;;;;13.90;11.15;;;1.80;1.00;;;;;;5072213;28;20411;-58
2021/12/07 02:52:35;;;;;;;13.80;11.18;;;1.80;1.00;;;;;;5072192;28;20830;-60
2021/12/07 02:55:02;;;;;;;15.57;11.48;;;1.80;1.00;;;;;;5072167;28;20822;-60
2021/12/07 02:57:31;;;;;;;16.10;11.68;;;1.80;1.00;;;;;;5072391;28;20415;-60
2021/12/07 03:00:02;;;;;;;16.25;12.48;;;1.80;1.00;;;;;;5072077;28;20427;-60
2021/12/07 03:02:32;;;;;;;17.27;12.63;;;1.90;1.00;;;;;;5071460;28;20424;-60
2021/12/07 03:05:04;;;;;;;18.13;13.70;;;1.90;1.00;;;;;;5072088;28;20407;-60
2021/12/07 03:07:46;;;;;;;18.10;13.73;;;2.00;1.00;;;;;;5072168;28;20419;-60
2021/12/07 03:26:43;;;;;;;31.98;20.95;;;2.30;23.00;;;;;;5071729;28;20834;-59
2021/12/07 03:29:11;;;;;;;31.40;21.90;;;2.40;31.20;;;;;;5071677;28;20464;-59
2021/12/07 03:31:37;;;;;;;36.35;23.27;;;2.40;33.30;;;;;;5070984;28;20493;-59
2021/12/07 03:34:05;;;;;;;37.20;23.75;;;2.50;40.40;;;;;;5071203;28;21164;-58
2021/12/07 03:36:32;;;;;;;36.17;23.60;;;2.50;52.00;;;;;;5071511;28;20810;-57
2021/12/07 03:38:59;;;;;;;37.85;25.02;;;2.60;51.60;;;;;;5071552;28;20419;-59
2021/12/07 03:41:26;;;;;;;40.28;24.75;;;2.60;69.70;;;;;;5071295;28;21379;-59
2021/12/07 03:43:53;;;;;;;40.22;25.52;;;2.70;75.90;;;;;;5071328;28;20415;-60
2021/12/07 03:46:22;;;;;;;41.35;24.90;;;2.70;77.10;;;;;;5071501;28;20423;-60
2021/12/07 03:48:49;;;;;;;39.83;25.58;;;2.70;89.70;;;;;;5071692;28;20420;-60
2021/12/07 03:51:16;;;;;;;36.67;23.65;;;2.90;92.00;;;;;;5070865;28;20439;-60
2021/12/07 03:53:43;;;;;;;38.03;24.77;;;2.80;89.30;;;;;;5071137;28;20419;-60
2021/12/07 03:56:10;;;;;;;38.28;25.10;;;2.90;93.20;;;;;;5071130;28;20776;-59
2021/12/07 03:58:38;;;;;;;37.95;24.38;;;3.00;94.80;;;;;;5071054;28;20950;-59
2021/12/07 04:01:07;;;;;;;34.47;23.40;;;3.00;90.10;;;;;;5070850;28;20419;-60
2021/12/07 04:03:36;;;;;;;37.35;23.23;;;3.00;89.70;;;;;;5071194;28;20494;-60
2021/12/07 04:06:06;;;;;;;39.17;23.95;;;3.10;95.00;;;;;;5071226;28;20434;-60
2021/12/07 04:08:36;;;;;;;36.75;23.27;;;3.00;95.70;;;;;;5070830;28;20419;-60
2021/12/07 04:11:03;;;;;;;35.58;21.67;;;3.10;97.90;;;;;;5070942;28;20826;-58
2021/12/07 04:13:29;;;;;;;33.42;21.00;;;3.20;96.40;;;;;;5070262;28;20411;-60
2021/12/07 04:15:57;;;;;;;31.88;20.27;;;3.20;97.10;;;;;;5070365;28;20419;-59
2021/12/07 04:18:25;;;;;;;33.70;20.48;;;3.30;93.90;;;;;;5070875;28;20486;-57
2021/12/07 04:20:53;;;;;;;35.20;20.95;;;3.30;92.70;;;;;;5070835;28;20880;-56
2021/12/07 04:23:20;;;;;;;34.17;20.10;;;3.30;91.00;;;;;;5070144;28;20407;-59
2021/12/07 04:25:47;;;;;;;31.90;19.52;;;3.40;91.00;;;;;;5070839;28;20789;-60
2021/12/07 04:28:13;;;;;;;32.22;19.88;;;3.50;65.70;;;;;;5070881;28;20419;-60
2021/12/07 04:30:43;;;;;;;36.55;20.98;;;3.30;52.20;;;;;;5070416;28;20517;-60
2021/12/07 04:33:12;;;;;;;33.17;20.25;;;3.30;64.70;;;;;;5070337;28;20427;-58
2021/12/07 04:35:41;;;;;;;35.97;19.63;;;3.30;82.20;;;;;;5071017;28;20449;-58
2021/12/07 04:38:09;;;;;;;30.38;19.30;;;3.40;87.20;;;;;;5070579;28;20477;-60
2021/12/07 04:40:36;;;;;;;35.72;19.98;;;3.40;88.70;;;;;;5070672;28;20407;-60
2021/12/07 04:43:05;;;;;;;33.97;20.15;;;3.50;91.90;;;;;;5070412;28;20468;-59
2021/12/07 04:45:39;;;;;;;39.10;21.25;;;3.50;96.30;;;;;;5070466;28;20412;-59
2021/12/07 04:48:33;;;;;;;40.22;21.75;;;3.50;99.90;;;;;;5070503;28;20411;-58
2021/12/07 04:59:17;;;;;;;38.80;21.45;;;3.70;92.90;;;;;;5070326;28;20529;-60
2021/12/07 05:01:44;;;;;;;36.45;20.42;;;3.60;99.90;;;;;;5070386;28;20818;-58
2021/12/07 05:04:15;;;;;;;35.13;21.38;;;3.70;99.90;;;;;;5070131;28;20403;-60
2021/12/07 05:06:47;;;;;;;35.97;20.52;;;3.60;99.90;;;;;;5070364;28;20428;-59
2021/12/07 05:09:36;;;;;;;41.15;21.52;;;3.70;99.90;;;;;;5070265;28;20416;-60
2021/12/07 05:15:06;;;;;;;28.97;13.33;;;3.50;99.90;;;;;;5089537;28;20416;-58
2021/12/07 05:17:58;;;;;;;20.80;11.83;;;3.60;99.90;;;;;;5089448;28;20446;-59
2021/12/07 05:34:32;;;;;;;22.23;10.90;;;3.30;99.90;;;;;;5084929;28;20426;-59
2021/12/07 05:34:49;;;;;;;19.20;9.37;;;3.20;99.90;;;;;;5088918;28;20535;-59
2021/12/07 05:40:05;;;;;;;23.20;10.07;;;3.20;99.90;;;;;;5088991;28;20945;-58
2021/12/07 05:42:32;;;;;;;28.97;11.27;;;3.20;99.90;;;;;;5088306;28;20954;-58
2021/12/07 05:44:58;;;;;;;20.37;9.70;;;3.20;99.90;;;;;;5088854;28;20477;-60
2021/12/07 05:47:27;;;;;;;28.10;13.03;;;3.20;99.90;;;;;;5088752;28;20450;-59
2021/12/07 05:49:53;;;;;;;26.73;12.20;;;3.20;99.90;;;;;;5088581;28;20454;-59
2021/12/07 05:52:20;;;;;;;22.37;9.37;;;3.20;99.90;;;;;;5088846;28;20454;-59
2021/12/07 05:54:47;;;;;;;27.30;13.20;;;3.20;99.90;;;;;;5088713;28;20532;-59
2021/12/07 05:57:14;;;;;;;25.33;13.47;;;3.30;99.90;;;;;;5088686;28;20442;-59
2021/12/07 05:59:41;;;;;;;29.37;13.43;;;3.30;99.90;;;;;;5088521;28;20530;-59
2021/12/07 06:02:07;;;;;;;32.57;14.00;;;3.30;99.90;;;;;;5088400;28;20458;-58
2021/12/07 06:04:36;;;;;;;29.43;13.47;;;3.30;99.90;;;;;;5088564;28;20467;-58
2021/12/07 06:07:03;;;;;;;32.47;14.43;;;3.30;99.90;;;;;;5088397;28;20476;-58
2021/12/07 06:09:30;;;;;;;27.53;12.00;;;3.30;99.90;;;;;;5088227;28;20951;-58
2021/12/07 06:11:57;;;;;;;36.07;15.03;;;3.40;99.90;;;;;;5087778;28;20495;-58
2021/12/07 06:14:30;;;;;;;26.20;14.50;;;3.40;99.90;;;;;;5104247;28;20563;-58
2021/12/07 06:16:57;;;;;;;37.00;16.23;;;3.40;99.90;;;;;;5108298;28;20464;-60
2021/12/07 06:19:24;;;;;;;31.03;16.43;;;3.40;99.90;;;;;;5108758;28;20442;-59
2021/12/07 06:21:52;;;;;;;36.27;18.17;;;3.40;99.90;;;;;;5108098;28;20515;-59
2021/12/07 06:24:19;;;;;;;26.63;15.30;;;3.30;99.90;;;;;;5106574;28;20492;-59
2021/12/07 06:26:45;;;;;;;28.20;15.80;;;3.40;99.90;;;;;;5094712;28;20842;-59
2021/12/07 06:29:12;;;;;;;29.63;17.40;;;3.40;99.90;;;;;;5088021;28;20903;-58
2021/12/07 06:31:39;;;;;;;40.20;16.90;;;3.40;99.90;;;;;;5086400;28;20457;-59
2021/12/07 06:34:06;;;;;;;31.97;16.07;;;3.40;99.90;;;;;;5094373;28;20485;-60
2021/12/07 06:36:32;;;;;;;36.67;18.07;;;3.40;99.90;;;;;;5095195;28;20500;-59
2021/12/07 06:39:00;;;;;;;31.20;15.40;;;3.50;99.90;;;;;;5094182;28;20458;-57
2021/12/07 06:41:27;;;;;;;34.23;16.47;;;3.40;99.90;;;;;;5093403;28;20507;-58
2021/12/07 06:43:54;;;;;;;33.67;14.17;;;3.40;99.90;;;;;;5093364;28;20458;-59
2021/12/07 06:46:20;;;;;;;35.40;17.10;;;3.40;99.90;;;;;;5093883;28;20929;-61
2021/12/07 06:48:47;;;;;;;35.70;15.80;;;3.40;99.90;;;;;;5094014;28;20457;-58
2021/12/07 06:51:13;;;;;;;26.73;15.00;;;3.50;99.90;;;;;;5090411;28;20470;-57
2021/12/07 06:53:40;;;;;;;40.77;15.30;;;3.50;99.90;;;;;;5093493;28;20998;-57
2021/12/07 06:56:11;;;;;;;32.57;15.80;;;3.40;99.90;;;;;;5093873;28;20508;-57
2021/12/07 06:58:39;;;;;;;32.60;15.73;;;3.40;99.90;;;;;;5093969;28;20511;-59
2021/12/07 07:01:08;;;;;;;25.67;14.50;;;3.40;99.90;;;;;;5093563;28;20450;-58
2021/12/07 07:03:34;;;;;;;31.70;13.80;;;3.50;99.90;;;;;;5093638;28;20470;-57
2021/12/07 07:06:01;;;;;;;31.87;15.57;;;3.50;99.90;;;;;;5093852;28;20460;-58
2021/12/07 07:08:28;;;;;;;33.33;14.37;;;3.50;99.90;;;;;;5093051;28;20954;-59
2021/12/07 07:10:55;;;;;;;42.73;16.03;;;3.50;99.90;;;;;;5093486;28;20866;-58
2021/12/07 07:13:23;;;;;;;40.22;21.17;;;3.40;99.90;;;;;;5091778;28;20914;-58
2021/12/07 07:15:50;;;;;;;36.97;15.63;;;3.50;99.90;;;;;;5093468;28;20212;-59
2021/12/07 07:18:17;;;;;;;37.75;18.38;;;3.50;99.90;;;;;;5092337;28;20528;-58
2021/12/07 07:20:43;;;;;;;37.70;17.77;;;3.60;99.90;;;;;;5091770;28;20435;-60
2021/12/07 07:23:10;;;;;;;24.73;12.40;;;3.60;99.90;;;;;;5093016;28;20277;-59
2021/12/07 07:25:37;;;;;;;33.28;16.42;;;3.60;99.90;;;;;;5092045;28;20852;-61
2021/12/07 07:28:04;;;;;;;39.07;17.20;;;3.70;99.90;;;;;;5092534;28;20405;-58
2021/12/07 07:30:32;;;;;;;37.90;17.30;;;3.60;99.90;;;;;;5091768;28;20427;-59
2021/12/07 07:35:24;;;;;;;36.20;16.90;;;3.70;99.90;;;;;;5096977;22;20442;-60
2021/12/07 07:37:52;;;;;;;34.13;16.33;;;3.70;99.90;;;;;;5090788;28;20468;-59
2021/12/07 07:40:21;;;;;;;34.47;16.63;;;3.70;99.90;;;;;;5091747;28;20424;-62
2021/12/07 07:42:48;;;;;;;35.15;15.65;;;3.70;99.90;;;;;;5092672;28;20417;-61
2021/12/07 07:45:15;;;;;;;38.70;17.40;;;3.70;99.90;;;;;;5111704;28;20408;-62
2021/12/07 07:47:43;;;;;;;33.58;17.55;;;3.70;99.90;;;;;;5112298;28;20421;-61
2021/12/07 07:50:13;;;;;;;35.03;19.13;;;3.60;99.90;;;;;;5111389;28;20926;-60
2021/12/07 07:52:40;;;;;;;36.90;17.98;;;3.70;99.90;;;;;;5078774;28;20412;-61
2021/12/07 07:55:07;;;;;;;35.08;16.98;;;3.80;99.90;;;;;;5103336;28;20973;-61
2021/12/07 07:57:35;;;;;;;37.65;17.90;;;3.80;99.90;;;;;;5111798;28;20420;-60
2021/12/07 08:00:03;;;;;;;35.70;17.75;;;3.70;91.80;;;;;;5111112;28;20401;-60
2021/12/07 08:02:30;;;;;;;37.27;18.40;;;3.80;90.40;;;;;;5111067;28;20419;-60
2021/12/07 08:04:58;;;;;;;37.28;18.90;;;3.70;82.90;;;;;;5111596;28;21008;-61
2021/12/07 08:07:25;;;;;;;38.97;18.33;;;3.70;84.00;;;;;;5111532;28;20953;-60
2021/12/07 08:09:51;;;;;;;33.70;17.48;;;3.70;87.50;;;;;;5111386;28;20457;-61
2021/12/07 08:12:18;;;;;;;35.95;18.52;;;3.70;69.30;;;;;;5111236;28;20833;-61
2021/12/07 08:14:45;;;;;;;35.78;17.88;;;3.80;73.40;;;;;;5111453;28;20454;-60
2021/12/07 08:17:12;;;;;;;33.07;16.27;;;3.80;66.90;;;;;;5111080;28;20925;-60
2021/12/07 08:19:38;;;;;;;33.72;16.88;;;3.80;48.10;;;;;;5111292;28;20480;-62
2021/12/07 08:22:07;;;;;;;28.65;15.35;;;3.90;43.60;;;;;;5110974;28;20416;-62
2021/12/07 08:24:34;;;;;;;31.52;15.93;;;3.80;34.40;;;;;;5091341;28;20485;-63
2021/12/07 08:27:00;;;;;;;33.05;17.10;;;3.80;29.00;;;;;;5070653;28;20416;-61
2021/12/07 08:29:27;;;;;;;39.92;17.90;;;3.70;25.40;;;;;;5070490;28;20412;-62
2021/12/07 08:31:54;;;;;;;37.50;20.38;;;3.70;24.00;;;;;;5095825;28;20427;-61
2021/12/07 08:34:21;;;;;;;36.45;16.98;;;3.70;25.70;;;;;;5070557;28;20489;-59
2021/12/07 08:36:47;;;;;;;39.47;18.88;;;3.70;27.90;;;;;;5070414;28;21102;-60
2021/12/07 08:39:16;;;;;;;35.33;16.83;;;3.70;25.70;;;;;;5072157;28;20420;-61
2021/12/07 08:41:43;;;;;;;37.67;17.17;;;3.60;15.10;;;;;;5106016;28;20491;-59
2021/12/07 08:44:10;;;;;;;31.30;15.65;;;3.70;20.40;;;;;;5093795;28;20408;-59
2021/12/07 08:46:38;;;;;;;32.17;16.98;;;3.70;15.50;;;;;;5111134;28;20420;-60
2021/12/07 08:49:05;;;;;;;29.40;15.90;;;3.70;14.60;;;;;;5110347;28;20945;-61
2021/12/07 08:51:32;;;;;;;31.75;16.25;;;3.60;5.90;;;;;;5110183;28;20469;-60
2021/12/07 08:54:04;;;;;;;36.72;16.17;;;3.60;2.30;;;;;;5097395;28;20423;-59
2021/12/07 09:02:01;;;;;;;30.42;16.25;;;3.50;21.10;;;;;;5069710;28;20434;-60
2021/12/07 09:04:28;;;;;;;33.00;15.75;;;3.60;27.60;;;;;;5070958;28;20880;-57
2021/12/07 09:06:54;;;;;;;27.67;15.43;;;3.50;22.90;;;;;;5070641;28;20419;-60
2021/12/07 09:09:21;;;;;;;31.13;14.27;;;3.60;27.10;;;;;;5070808;28;20900;-62
2021/12/07 09:11:49;;;;;;;31.95;15.32;;;3.60;19.60;;;;;;5070596;28;20415;-61
2021/12/07 09:14:18;;;;;;;27.35;14.68;;;3.60;16.20;;;;;;5070792;28;20493;-60
2021/12/07 09:16:45;;;;;;;28.60;13.35;;;3.50;17.20;;;;;;5070357;28;20447;-61
2021/12/07 09:19:13;;;;;;;28.70;13.18;;;3.60;27.50;;;;;;5070652;28;20411;-62
2021/12/07 09:21:40;;;;;;;27.10;12.70;;;3.60;28.10;;;;;;5069809;28;20884;-61
2021/12/07 09:24:07;;;;;;;28.13;12.57;;;3.70;1.60;;;;;;5070682;28;20407;-62
2021/12/07 09:26:38;;;;;;;26.73;12.63;;;3.60;1.00;;;;;;5071027;28;20416;-60
2021/12/07 09:29:06;;;;;;;23.98;10.93;;;3.50;1.50;;;;;;5071050;28;20423;-62
2021/12/07 09:31:34;;;;;;;22.25;10.65;;;3.60;1.00;;;;;;5069827;28;20425;-62
2021/12/07 09:34:00;;;;;;;26.98;10.77;;;3.70;1.00;;;;;;5070300;28;20811;-64
2021/12/07 09:36:27;;;;;;;21.00;10.40;;;3.70;1.00;;;;;;5075961;28;20477;-61
2021/12/07 09:38:54;;;;;;;24.80;11.13;;;3.70;1.00;;;;;;5110694;28;20831;-61
2021/12/07 09:41:20;;;;;;;24.45;10.05;;;3.60;1.00;;;;;;5109748;28;20909;-62
2021/12/07 09:43:47;;;;;;;27.75;11.38;;;3.60;1.00;;;;;;5110456;28;20407;-59
2021/12/07 09:46:16;;;;;;;25.02;10.77;;;3.60;1.00;;;;;;5110205;28;20461;-61
2021/12/07 09:48:44;;;;;;;31.20;12.68;;;3.50;1.00;;;;;;5110441;28;20765;-60
2021/12/07 09:51:13;;;;;;;26.40;12.03;;;3.50;1.00;;;;;;5110053;28;20412;-61
2021/12/07 09:53:40;;;;;;;27.10;11.95;;;3.60;1.30;;;;;;5109999;28;20412;-63
2021/12/07 09:56:08;;;;;;;26.15;11.13;;;3.70;16.90;;;;;;5110243;28;20819;-62
2021/12/07 09:58:35;;;;;;;24.63;11.45;;;3.70;12.90;;;;;;5110385;28;20412;-63
2021/12/07 10:01:02;;;;;;;24.33;11.57;;;3.70;1.00;;;;;;5112722;28;20416;-63
2021/12/07 10:03:30;;;;;;;23.40;11.67;;;3.70;1.00;;;;;;5113471;28;20485;-61
2021/12/07 10:05:57;;;;;;;25.33;11.90;;;3.70;1.00;;;;;;5114019;28;20899;-61
2021/12/07 10:08:24;;;;;;;22.17;11.13;;;3.70;1.00;;;;;;5113885;28;20871;-62
2021/12/07 10:10:55;;;;;;;25.92;12.65;;;3.70;1.00;;;;;;5113679;28;20788;-61
2021/12/07 10:13:22;;;;;;;27.35;12.02;;;3.80;1.00;;;;;;5113336;28;20420;-63
2021/12/07 10:15:50;;;;;;;27.45;12.85;;;3.90;1.00;;;;;;5113521;28;20525;-62
2021/12/07 10:18:19;;;;;;;28.60;12.87;;;3.90;1.00;;;;;;5113603;28;20423;-62
2021/12/07 10:20:49;;;;;;;24.70;13.05;;;3.90;1.00;;;;;;5113439;28;20412;-62
2021/12/07 10:23:26;;;;;;;25.83;12.17;;;3.90;1.00;;;;;;5113297;28;20412;-61
2021/12/07 10:25:56;;;;;;;24.65;12.00;;;3.90;1.00;;;;;;5113675;28;20428;-61
2021/12/07 10:28:28;;;;;;;23.13;12.57;;;3.90;1.00;;;;;;5113365;28;20463;-59
2021/12/07 10:30:55;;;;;;;25.70;13.27;;;3.90;1.00;;;;;;5113350;28;20461;-60
2021/12/07 10:33:30;;;;;;;21.20;12.38;;;3.90;1.00;;;;;;5113272;28;20415;-61
2021/12/07 10:36:11;;;;;;;25.70;11.30;;;4.00;1.00;;;;;;5113452;28;20443;-61
2021/12/07 10:38:40;;;;;;;24.75;12.23;;;3.80;1.00;;;;;;5113223;28;20416;-61
2021/12/07 10:41:09;;;;;;;23.00;10.93;;;4.00;1.00;;;;;;5112722;28;20465;-60
2021/12/07 10:43:47;;;;;;;26.97;12.30;;;4.00;1.00;;;;;;5113457;28;20503;-60
2021/12/07 10:46:28;;;;;;;23.43;13.03;;;4.00;1.00;;;;;;5113404;28;20408;-61
2021/12/07 10:49:10;;;;;;;25.10;12.87;;;3.90;1.00;;;;;;5113191;28;20408;-61
2021/12/07 10:51:39;;;;;;;33.55;14.77;;;3.90;1.00;;;;;;5112366;28;20949;-61
2021/12/07 10:54:06;;;;;;;26.67;13.50;;;4.00;1.00;;;;;;5113134;28;20411;-60
2021/12/07 10:56:34;;;;;;;26.88;12.77;;;4.00;1.00;;;;;;5112977;28;20424;-61
2021/12/07 10:59:02;;;;;;;25.50;13.23;;;4.00;1.00;;;;;;5112853;28;20412;-63
2021/12/07 11:01:33;;;;;;;23.75;11.57;;;4.10;1.00;;;;;;5112231;28;20404;-60
2021/12/07 11:04:19;;;;;;;21.23;10.68;;;4.30;1.00;;;;;;5112497;28;20419;-64
2021/12/07 11:07:08;;;;;;;24.48;11.30;;;4.40;1.00;;;;;;5113128;28;20487;-64
2021/12/07 11:09:46;;;;;;;20.92;9.40;;;4.50;1.00;;;;;;5112523;28;20414;-64
2021/12/07 11:12:16;;;;;;;18.52;8.82;;;4.50;1.00;;;;;;5111884;28;20415;-59
2021/12/07 11:14:49;;;;;;;18.77;9.20;;;4.60;1.00;;;;;;5112560;28;20427;-59
2021/12/07 11:17:17;;;;;;;21.02;9.45;;;4.60;1.00;;;;;;5111728;28;20416;-57
2021/12/07 11:19:43;;;;;;;18.65;8.63;;;4.70;1.00;;;;;;5112192;28;20419;-57
2021/12/07 11:22:15;;;;;;;18.73;8.70;;;4.70;1.00;;;;;;5111998;28;20461;-57
2021/12/07 11:24:44;;;;;;;17.90;8.43;;;4.50;1.00;;;;;;5112079;28;20423;-55
2021/12/07 11:30:00;;;;;;;20.33;8.77;;;4.60;1.00;;;;;;5112241;28;20534;-55
2021/12/07 11:32:27;;;;;;;19.95;7.85;;;4.50;1.00;;;;;;5111701;28;20448;-58
2021/12/07 11:34:54;;;;;;;17.77;7.60;;;4.70;1.00;;;;;;5111856;28;20762;-57
2021/12/07 11:37:23;;;;;;;17.52;7.75;;;4.70;1.00;;;;;;5111872;28;20897;-58
2021/12/07 11:39:52;;;;;;;15.18;7.03;;;4.90;1.00;;;;;;5112089;28;20435;-59
2021/12/07 11:42:21;;;;;;;18.23;6.88;;;4.90;1.00;;;;;;5111715;28;20458;-60
2021/12/07 11:44:51;;;;;;;15.70;6.72;;;4.90;1.00;;;;;;5112113;28;20439;-60
2021/12/07 11:47:26;;;;;;;19.65;7.30;;;4.80;1.00;;;;;;5112234;28;20408;-59
2021/12/07 11:49:53;;;;;;;18.00;7.35;;;4.80;1.00;;;;;;5111565;28;20423;-58
2021/12/07 11:52:20;;;;;;;18.67;6.75;;;4.70;1.00;;;;;;5111634;28;20407;-57
2021/12/07 11:54:49;;;;;;;20.70;6.72;;;4.60;1.00;;;;;;5111715;28;20435;-57
2021/12/07 11:57:18;;;;;;;20.05;7.28;;;4.70;1.00;;;;;;5111745;28;20429;-57
2021/12/07 11:59:48;;;;;;;18.57;7.57;;;4.70;1.00;;;;;;5111773;28;20416;-60
2021/12/07 12:02:15;;;;;;;17.93;6.97;;;4.70;1.00;;;;;;5110978;28;20761;-58
2021/12/07 12:04:42;;;;;;;16.52;6.70;;;4.80;1.00;;;;;;5111854;28;20408;-60
2021/12/07 12:07:10;;;;;;;21.17;7.75;;;4.90;1.00;;;;;;5111674;28;20465;-58
2021/12/07 12:09:44;;;;;;;16.92;7.10;;;5.00;1.00;;;;;;5111449;28;20416;-57
2021/12/07 12:12:20;;;;;;;15.52;6.03;;;5.20;1.00;;;;;;5111086;28;20416;-58
2021/12/07 12:14:58;;;;;;;17.92;6.50;;;5.20;1.00;;;;;;5111261;28;20487;-55
2021/12/07 12:17:36;;;;;;;16.98;6.07;;;5.30;1.00;;;;;;5111258;28;20419;-60
2021/12/07 12:20:28;;;;;;;16.03;6.80;;;5.20;1.00;;;;;;5105115;28;20423;-61
2021/12/07 12:23:02;;;;;;;19.05;7.35;;;5.20;1.00;;;;;;5069277;28;20446;-61
2021/12/07 12:25:29;;;;;;;17.52;7.10;;;5.30;1.00;;;;;;5070721;28;20407;-61
2021/12/07 12:27:58;;;;;;;17.00;6.32;;;5.40;1.00;;;;;;5071016;28;20473;-60
2021/12/07 12:30:27;;;;;;;16.73;6.55;;;5.50;1.00;;;;;;5070594;28;20473;-60
2021/12/07 12:32:56;;;;;;;17.48;6.07;;;5.40;1.00;;;;;;5070401;28;20416;-60
2021/12/07 12:35:38;;;;;;;17.63;6.18;;;5.30;1.00;;;;;;5070136;28;20488;-59
2021/12/07 12:38:17;;;;;;;16.63;7.00;;;5.10;1.00;;;;;;5070611;28;20412;-57
2021/12/07 12:40:53;;;;;;;16.33;6.60;;;5.20;1.00;;;;;;5070152;28;20506;-59
2021/12/07 12:43:33;;;;;;;18.73;6.53;;;5.40;1.00;;;;;;5070189;28;20415;-60
2021/12/07 12:46:01;;;;;;;16.67;6.82;;;5.50;1.00;;;;;;5070091;28;20923;-61
2021/12/07 12:48:28;;;;;;;15.13;6.60;;;5.50;1.00;;;;;;5070562;28;20524;-60
2021/12/07 12:50:55;;;;;;;16.58;7.47;;;5.60;1.00;;;;;;5070392;28;20427;-58
2021/12/07 12:53:24;;;;;;;15.95;7.93;;;5.50;1.00;;;;;;5069878;28;20411;-61
2021/12/07 12:55:53;;;;;;;17.83;7.63;;;5.50;1.00;;;;;;5070145;28;20823;-60
2021/12/07 12:58:22;;;;;;;20.20;8.32;;;5.50;1.00;;;;;;5069960;28;20442;-60
2021/12/07 13:01:09;;;;;;;17.40;7.43;;;5.50;1.00;;;;;;5071082;28;20423;-60
2021/12/07 13:04:01;;;;;;;20.08;7.93;;;5.60;1.00;;;;;;5070461;28;20412;-59
2021/12/07 13:07:02;;;;;;;16.07;7.17;;;5.70;1.00;;;;;;5070289;28;20876;-62
2021/12/07 13:09:41;;;;;;;16.35;7.35;;;5.70;1.00;;;;;;5047303;28;20486;-60
2021/12/07 13:12:11;;;;;;;16.02;7.70;;;5.60;1.00;;;;;;5069650;28;20415;-62
2021/12/07 13:14:51;;;;;;;16.73;7.00;;;5.60;1.00;;;;;;5069717;28;20415;-60
2021/12/07 13:17:23;;;;;;;17.27;6.80;;;5.60;1.00;;;;;;5069689;28;20404;-59
2021/12/07 13:20:22;;;;;;;19.88;7.00;;;5.60;1.00;;;;;;5069886;28;20823;-62
2021/12/07 13:22:53;;;;;;;16.42;6.63;;;5.50;1.00;;;;;;5069144;28;20419;-60
2021/12/07 13:25:23;;;;;;;15.45;5.43;;;5.70;1.00;;;;;;5069852;28;20411;-63
2021/12/07 13:28:22;;;;;;;18.48;6.15;;;5.70;1.00;;;;;;5070626;28;20418;-61
2021/12/07 13:31:05;;;;;;;15.57;5.83;;;5.70;1.00;;;;;;5069766;28;20923;-60
2021/12/07 13:33:38;;;;;;;14.98;5.35;;;5.70;1.00;;;;;;5070139;28;21004;-59
2021/12/07 13:36:30;;;;;;;14.57;5.17;;;5.70;1.00;;;;;;5072559;28;20424;-59
2021/12/07 13:39:00;;;;;;;14.00;5.10;;;5.80;1.00;;;;;;5073859;28;20422;-60
2021/12/07 13:41:27;;;;;;;14.13;5.32;;;5.80;1.00;;;;;;5073334;28;20433;-60
2021/12/07 13:43:56;;;;;;;15.48;5.28;;;5.70;1.00;;;;;;5074219;28;20513;-60
2021/12/07 13:46:25;;;;;;;15.10;4.53;;;5.70;1.00;;;;;;5074874;28;20494;-57
2021/12/07 13:49:02;;;;;;;13.15;4.50;;;5.50;1.00;;;;;;5075528;28;20418;-60
2021/12/07 13:51:29;;;;;;;14.18;4.68;;;5.50;1.00;;;;;;5074605;28;20411;-60
2021/12/07 13:53:56;;;;;;;13.10;4.60;;;5.50;1.00;;;;;;5073650;28;20415;-60
2021/12/07 13:56:23;;;;;;;10.43;4.73;;;5.40;1.00;;;;;;5073639;28;20438;-61
2021/12/07 13:58:53;;;;;;;12.98;4.68;;;5.50;1.00;;;;;;5073580;28;20559;-59
2021/12/07 14:01:19;;;;;;;9.90;4.00;;;5.40;1.00;;;;;;5072899;28;20418;-56
2021/12/07 14:03:47;;;;;;;14.25;3.83;;;5.10;1.00;;;;;;5073150;28;20419;-59
2021/12/07 14:06:15;;;;;;;12.55;3.88;;;5.00;1.00;;;;;;5073457;28;20461;-59
2021/12/07 14:08:42;;;;;;;11.65;4.10;;;5.00;1.00;;;;;;5073302;28;20412;-58
2021/12/07 14:11:13;;;;;;;9.18;4.07;;;5.00;1.00;;;;;;5073036;28;20799;-60
2021/12/07 14:13:41;;;;;;;10.20;3.65;;;5.00;99.90;;;;;;5074071;28;20451;-59
2021/12/07 14:16:08;;;;;;;10.45;3.90;;;4.90;99.90;;;;;;5080441;28;20508;-59
2021/12/07 14:18:35;;;;;;;10.25;3.65;;;4.80;99.90;;;;;;5100499;28;20419;-59
2021/12/07 14:21:03;;;;;;;9.50;3.35;;;4.80;99.90;;;;;;5090083;28;20822;-58